Zim Rio Grande — 9HNV9 — position and weather

sailwx.info

Track history (hours):
 
Tides and Currents Weather Stations Pressure Air Temp Water Temp Dewpoint Dewpoint Depression Visibility Wind Speed Wind Dir Waves Ship Positions

Zim Rio Grande

Last reported at 2016-May-22 17:22 UTC. Time now 2016-May-30 07:00 UTC.
Position N 36°48' E 034°38'.

Length 260 m; draft 10.6 m.

Type: Ship (hazmat cat A). MMSI: 249253000.

Date/timePositionNaut miles runAvg speedWind from/ knotsBaromVisibWave heightAir tempDewpointWater temp
2016-May-22 17:22N 36°48' E 034°38'0 0.0
2016-May-22 14:31N 36°48' E 034°38'0 0.0
2016-May-22 13:28N 36°48' E 034°38'0 0.0
2016-May-22 12:16N 36°48' E 034°38'0 0.0
2016-May-22 09:28N 36°48' E 034°38'6 0.3
2016-May-21 16:19N 36°42' E 034°41'20819.3
2016-May-21 05:33N 34°22' E 031°33'2323.2
2016-May-21 04:34N 34°01' E 031°21'  
2016-May-17 21:19N 31°49' E 034°34'0 0.0
2016-May-17 20:25N 31°49' E 034°34'0 0.0
2016-May-17 19:31N 31°49' E 034°34'0 0.0
2016-May-17 18:31N 31°49' E 034°34'0 0.0
2016-May-17 17:31N 31°49' E 034°34'0 0.0
2016-May-17 16:31N 31°49' E 034°34'0 0.0
2016-May-17 15:31N 31°49' E 034°34'0 0.0
2016-May-17 14:28N 31°49' E 034°34'0 0.0
2016-May-17 13:28N 31°49' E 034°34'0 0.0
2016-May-17 12:31N 31°49' E 034°34'0 0.0
2016-May-17 11:31N 31°49' E 034°34'0 0.0
2016-May-17 10:28N 31°49' E 034°34'0 0.0
2016-May-17 09:13N 31°49' E 034°34'0 0.0
2016-May-17 07:28N 31°49' E 034°34'0 0.0
2016-May-17 06:33N 31°49' E 034°34'0 0.0
2016-May-17 05:33N 31°49' E 034°34'0 0.0
2016-May-17 04:31N 31°49' E 034°34'0 0.0
2016-May-17 03:33N 31°49' E 034°34'4 3.5
2016-May-17 02:33N 31°51' E 034°31'9 9.2
2016-May-17 01:33N 32°00' E 034°30'1312.6
2016-May-17 00:33N 32°12' E 034°34'1312.9
2016-May-16 23:33N 32°25' E 034°39'1313.4
2016-May-16 22:33N 32°38' E 034°43'1313.3
2016-May-16 21:33N 32°50' E 034°48'10 9.7
2016-May-16 20:33N 32°52' E 034°59'3 2.9
2016-May-16 19:32N 32°49' E 035°01'0 0.0
2016-May-16 18:32N 32°49' E 035°01'0 0.0
2016-May-16 17:32N 32°49' E 035°01'0 0.0
2016-May-16 16:32N 32°49' E 035°01'0 0.0
2016-May-16 15:32N 32°49' E 035°01'0 0.0
2016-May-16 14:32N 32°49' E 035°01'0 0.0
2016-May-16 13:32N 32°49' E 035°01'0 0.0
2016-May-16 12:32N 32°49' E 035°01'0 0.0
2016-May-16 11:32N 32°49' E 035°01'0 0.0
2016-May-16 10:32N 32°49' E 035°01'0 0.0
2016-May-16 09:32N 32°49' E 035°01'0 0.0
2016-May-16 08:32N 32°49' E 035°01'0 0.0
2016-May-16 07:32N 32°49' E 035°01'0 0.0
2016-May-16 06:32N 32°49' E 035°01'0 0.0
2016-May-16 05:32N 32°49' E 035°01'0 0.0
2016-May-16 04:32N 32°49' E 035°01'0 0.0
2016-May-16 03:32N 32°49' E 035°01'0 0.3
2016-May-16 02:33N 32°49' E 035°01'4 4.1
2016-May-16 01:33N 32°52' E 034°57'1312.5
2016-May-16 00:33N 32°55' E 034°43'1514.5
2016-May-15 23:34N 32°54' E 034°25'1717.4
2016-May-15 22:33N 32°44' E 034°09'1717.5
2016-May-15 21:34N 32°33' E 033°53'1817.9
2016-May-15 20:34N 32°21' E 033°36'1818.0
2016-May-15 19:34N 32°10' E 033°20'1817.9
2016-May-15 18:34N 31°59' E 033°03'1817.5
2016-May-15 17:34N 31°48' E 032°47'1717.0
2016-May-15 16:33N 31°39' E 032°30'  
Track history (hours):
 
Tides and Currents Weather Stations Pressure Air Temp Water Temp Dewpoint Dewpoint Depression Visibility Wind Speed Wind Dir Waves Ship Positions

Zim Rio Grande

Last reported at 2016-May-22 17:22 UTC. Time now 2016-May-30 07:00 UTC.
Position N 36°48' E 034°38'.

Length 260 m; draft 10.6 m.

Type: Ship (hazmat cat A). MMSI: 249253000.

Date/timePositionNaut miles runAvg speedWind from/ knotsBaromVisibWave heightAir tempDewpointWater temp
2016-May-22 17:22N 36°48' E 034°38'0 0.0
2016-May-22 14:31N 36°48' E 034°38'0 0.0
2016-May-22 13:28N 36°48' E 034°38'0 0.0
2016-May-22 12:16N 36°48' E 034°38'0 0.0
2016-May-22 09:28N 36°48' E 034°38'6 0.3
2016-May-21 16:19N 36°42' E 034°41'20819.3
2016-May-21 05:33N 34°22' E 031°33'2323.2
2016-May-21 04:34N 34°01' E 031°21'  
2016-May-17 21:19N 31°49' E 034°34'0 0.0
2016-May-17 20:25N 31°49' E 034°34'0 0.0
2016-May-17 19:31N 31°49' E 034°34'0 0.0
2016-May-17 18:31N 31°49' E 034°34'0 0.0
2016-May-17 17:31N 31°49' E 034°34'0 0.0
2016-May-17 16:31N 31°49' E 034°34'0 0.0
2016-May-17 15:31N 31°49' E 034°34'0 0.0
2016-May-17 14:28N 31°49' E 034°34'0 0.0
2016-May-17 13:28N 31°49' E 034°34'0 0.0
2016-May-17 12:31N 31°49' E 034°34'0 0.0
2016-May-17 11:31N 31°49' E 034°34'0 0.0
2016-May-17 10:28N 31°49' E 034°34'0 0.0
2016-May-17 09:13N 31°49' E 034°34'0 0.0
2016-May-17 07:28N 31°49' E 034°34'0 0.0
2016-May-17 06:33N 31°49' E 034°34'0 0.0
2016-May-17 05:33N 31°49' E 034°34'0 0.0
2016-May-17 04:31N 31°49' E 034°34'0 0.0
2016-May-17 03:33N 31°49' E 034°34'4 3.5
2016-May-17 02:33N 31°51' E 034°31'9 9.2
2016-May-17 01:33N 32°00' E 034°30'1312.6
2016-May-17 00:33N 32°12' E 034°34'1312.9
2016-May-16 23:33N 32°25' E 034°39'1313.4
2016-May-16 22:33N 32°38' E 034°43'1313.3
2016-May-16 21:33N 32°50' E 034°48'10 9.7
2016-May-16 20:33N 32°52' E 034°59'3 2.9
2016-May-16 19:32N 32°49' E 035°01'0 0.0
2016-May-16 18:32N 32°49' E 035°01'0 0.0
2016-May-16 17:32N 32°49' E 035°01'0 0.0
2016-May-16 16:32N 32°49' E 035°01'0 0.0
2016-May-16 15:32N 32°49' E 035°01'0 0.0
2016-May-16 14:32N 32°49' E 035°01'0 0.0
2016-May-16 13:32N 32°49' E 035°01'0 0.0
2016-May-16 12:32N 32°49' E 035°01'0 0.0
2016-May-16 11:32N 32°49' E 035°01'0 0.0
2016-May-16 10:32N 32°49' E 035°01'0 0.0
2016-May-16 09:32N 32°49' E 035°01'0 0.0
2016-May-16 08:32N 32°49' E 035°01'0 0.0
2016-May-16 07:32N 32°49' E 035°01'0 0.0
2016-May-16 06:32N 32°49' E 035°01'0 0.0
2016-May-16 05:32N 32°49' E 035°01'0 0.0
2016-May-16 04:32N 32°49' E 035°01'0 0.0
2016-May-16 03:32N 32°49' E 035°01'0 0.3
2016-May-16 02:33N 32°49' E 035°01'4 4.1
2016-May-16 01:33N 32°52' E 034°57'1312.5
2016-May-16 00:33N 32°55' E 034°43'1514.5
2016-May-15 23:34N 32°54' E 034°25'1717.4
2016-May-15 22:33N 32°44' E 034°09'1717.5
2016-May-15 21:34N 32°33' E 033°53'1817.9
2016-May-15 20:34N 32°21' E 033°36'1818.0
2016-May-15 19:34N 32°10' E 033°20'1817.9
2016-May-15 18:34N 31°59' E 033°03'1817.5
2016-May-15 17:34N 31°48' E 032°47'1717.0
2016-May-15 16:33N 31°39' E 032°30'  

Dump ship's entire track history